sensor_id;sensor_type;location;lat;lon;timestamp;pressure;altitude;pressure_sealevel;temperature;humidity
6216;BME280;3141;49.234;9.326;2023-08-31T00:00:35;99067.34;;;18.04;92.20
6216;BME280;3141;49.234;9.326;2023-08-31T00:01:18;99065.94;;;18.01;92.16
6216;BME280;3141;49.234;9.326;2023-08-31T00:02:01;99063.84;;;18.03;91.95
6216;BME280;3141;49.234;9.326;2023-08-31T00:02:43;99064.44;;;18.05;92.28
6216;BME280;3141;49.234;9.326;2023-08-31T00:03:25;99063.50;;;18.00;92.23
6216;BME280;3141;49.234;9.326;2023-08-31T00:04:08;99067.84;;;17.94;92.84
6216;BME280;3141;49.234;9.326;2023-08-31T00:04:56;99070.34;;;17.89;93.10
6216;BME280;3141;49.234;9.326;2023-08-31T00:05:40;99074.75;;;18.02;93.17
6216;BME280;3141;49.234;9.326;2023-08-31T00:06:23;99070.94;;;17.91;92.87
6216;BME280;3141;49.234;9.326;2023-08-31T00:07:06;99073.81;;;17.96;93.23
6216;BME280;3141;49.234;9.326;2023-08-31T00:07:49;99075.25;;;17.92;93.01
6216;BME280;3141;49.234;9.326;2023-08-31T00:08:31;99079.31;;;18.01;92.47
6216;BME280;3141;49.234;9.326;2023-08-31T00:09:14;99081.53;;;18.04;92.57
6216;BME280;3141;49.234;9.326;2023-08-31T00:09:57;99081.94;;;18.08;92.12
6216;BME280;3141;49.234;9.326;2023-08-31T00:10:40;99078.13;;;18.22;91.28
6216;BME280;3141;49.234;9.326;2023-08-31T00:11:23;99086.38;;;18.20;90.47
6216;BME280;3141;49.234;9.326;2023-08-31T00:12:08;99075.28;;;18.17;90.97
6216;BME280;3141;49.234;9.326;2023-08-31T00:12:50;99075.75;;;18.07;90.40
6216;BME280;3141;49.234;9.326;2023-08-31T00:13:33;99076.88;;;18.00;90.94
6216;BME280;3141;49.234;9.326;2023-08-31T00:14:16;99080.00;;;17.90;91.36
6216;BME280;3141;49.234;9.326;2023-08-31T00:14:58;99080.00;;;17.90;91.11
6216;BME280;3141;49.234;9.326;2023-08-31T00:15:40;99079.16;;;17.90;91.41
6216;BME280;3141;49.234;9.326;2023-08-31T00:16:26;99083.72;;;17.89;91.47
6216;BME280;3141;49.234;9.326;2023-08-31T00:17:09;99082.22;;;17.93;91.07
6216;BME280;3141;49.234;9.326;2023-08-31T00:17:51;99080.84;;;17.91;91.56
6216;BME280;3141;49.234;9.326;2023-08-31T00:18:33;99083.13;;;17.87;91.34
6216;BME280;3141;49.234;9.326;2023-08-31T00:19:18;99086.41;;;17.89;91.37
6216;BME280;3141;49.234;9.326;2023-08-31T00:20:01;99080.88;;;17.84;91.13
6216;BME280;3141;49.234;9.326;2023-08-31T00:20:47;99086.66;;;17.81;91.31
6216;BME280;3141;49.234;9.326;2023-08-31T00:21:30;99076.72;;;17.88;90.99
6216;BME280;3141;49.234;9.326;2023-08-31T00:22:12;99078.38;;;17.89;90.64
6216;BME280;3141;49.234;9.326;2023-08-31T00:22:55;99077.50;;;17.95;90.19
6216;BME280;3141;49.234;9.326;2023-08-31T00:23:37;99078.09;;;17.97;90.15
6216;BME280;3141;49.234;9.326;2023-08-31T00:24:19;99075.53;;;17.84;90.33
6216;BME280;3141;49.234;9.326;2023-08-31T00:25:04;99077.72;;;17.94;90.10
6216;BME280;3141;49.234;9.326;2023-08-31T00:25:50;99076.63;;;18.01;89.28
6216;BME280;3141;49.234;9.326;2023-08-31T00:26:34;99068.09;;;17.86;89.74
6216;BME280;3141;49.234;9.326;2023-08-31T00:27:24;99076.03;;;17.99;89.33
6216;BME280;3141;49.234;9.326;2023-08-31T00:28:06;99074.25;;;17.87;89.94
6216;BME280;3141;49.234;9.326;2023-08-31T00:28:49;99079.22;;;17.83;89.96
6216;BME280;3141;49.234;9.326;2023-08-31T00:29:32;99077.06;;;17.67;90.56
6216;BME280;3141;49.234;9.326;2023-08-31T00:30:14;99076.06;;;17.68;90.65
6216;BME280;3141;49.234;9.326;2023-08-31T00:30:57;99081.22;;;17.63;91.14
6216;BME280;3141;49.234;9.326;2023-08-31T00:31:42;99075.59;;;17.71;90.73
6216;BME280;3141;49.234;9.326;2023-08-31T00:32:27;99078.28;;;17.71;90.36
6216;BME280;3141;49.234;9.326;2023-08-31T00:33:10;99075.84;;;17.70;90.02
6216;BME280;3141;49.234;9.326;2023-08-31T00:33:52;99072.66;;;17.55;90.72
6216;BME280;3141;49.234;9.326;2023-08-31T00:34:35;99072.03;;;17.53;91.24
6216;BME280;3141;49.234;9.326;2023-08-31T00:35:17;99063.25;;;17.39;91.73
6216;BME280;3141;49.234;9.326;2023-08-31T00:36:00;99070.59;;;17.44;91.97
6216;BME280;3141;49.234;9.326;2023-08-31T00:36:45;99071.44;;;17.51;91.74
6216;BME280;3141;49.234;9.326;2023-08-31T00:37:28;99067.53;;;17.47;91.54
6216;BME280;3141;49.234;9.326;2023-08-31T00:38:11;99063.84;;;17.41;92.01
6216;BME280;3141;49.234;9.326;2023-08-31T00:38:54;99067.53;;;17.47;91.37
6216;BME280;3141;49.234;9.326;2023-08-31T00:39:36;99068.97;;;17.49;91.50
6216;BME280;3141;49.234;9.326;2023-08-31T00:40:19;99073.28;;;17.50;91.41
6216;BME280;3141;49.234;9.326;2023-08-31T00:41:02;99069.97;;;17.55;90.51
6216;BME280;3141;49.234;9.326;2023-08-31T00:41:44;99070.78;;;17.55;90.52
6216;BME280;3141;49.234;9.326;2023-08-31T00:42:28;99070.38;;;17.45;90.83
6216;BME280;3141;49.234;9.326;2023-08-31T00:43:13;99064.69;;;17.35;91.38
6216;BME280;3141;49.234;9.326;2023-08-31T00:43:59;99061.59;;;17.38;91.38
6216;BME280;3141;49.234;9.326;2023-08-31T00:44:42;99064.06;;;17.46;91.05
6216;BME280;3141;49.234;9.326;2023-08-31T00:45:24;99070.19;;;17.47;90.75
6216;BME280;3141;49.234;9.326;2023-08-31T00:46:07;99066.69;;;17.53;90.24
6216;BME280;3141;49.234;9.326;2023-08-31T00:46:49;99066.53;;;17.34;91.13
6216;BME280;3141;49.234;9.326;2023-08-31T00:47:32;99066.16;;;17.31;91.35
6216;BME280;3141;49.234;9.326;2023-08-31T00:48:15;99069.25;;;17.28;91.79
6216;BME280;3141;49.234;9.326;2023-08-31T00:48:59;99070.91;;;17.29;91.78
6216;BME280;3141;49.234;9.326;2023-08-31T00:49:41;99071.88;;;17.34;91.48
6216;BME280;3141;49.234;9.326;2023-08-31T00:50:23;99071.28;;;17.32;91.32
6216;BME280;3141;49.234;9.326;2023-08-31T00:51:07;99074.94;;;17.38;90.98
6216;BME280;3141;49.234;9.326;2023-08-31T00:51:50;99073.06;;;17.45;90.40
6216;BME280;3141;49.234;9.326;2023-08-31T00:52:33;99077.25;;;17.28;91.26
6216;BME280;3141;49.234;9.326;2023-08-31T00:53:17;99075.63;;;17.27;91.42
6216;BME280;3141;49.234;9.326;2023-08-31T00:53:59;99086.09;;;17.28;91.86
6216;BME280;3141;49.234;9.326;2023-08-31T00:54:42;99085.69;;;17.31;91.42
6216;BME280;3141;49.234;9.326;2023-08-31T00:55:24;99089.59;;;17.29;91.64
6216;BME280;3141;49.234;9.326;2023-08-31T00:56:08;99087.56;;;17.24;91.74
6216;BME280;3141;49.234;9.326;2023-08-31T00:56:53;99083.88;;;17.19;92.04
6216;BME280;3141;49.234;9.326;2023-08-31T00:57:36;99087.94;;;17.28;91.49
6216;BME280;3141;49.234;9.326;2023-08-31T00:58:19;99088.13;;;17.33;91.62
6216;BME280;3141;49.234;9.326;2023-08-31T00:59:01;99090.19;;;17.31;90.92
6216;BME280;3141;49.234;9.326;2023-08-31T00:59:43;99079.09;;;17.27;91.48
6216;BME280;3141;49.234;9.326;2023-08-31T01:01:39;99083.63;;;17.33;91.09
6216;BME280;3141;49.234;9.326;2023-08-31T01:02:32;99082.78;;;17.33;91.16
6216;BME280;3141;49.234;9.326;2023-08-31T01:03:16;99086.06;;;17.35;89.71
6216;BME280;3141;49.234;9.326;2023-08-31T01:05:15;99088.50;;;17.43;89.98
6216;BME280;3141;49.234;9.326;2023-08-31T01:07:39;99091.84;;;17.32;90.82
6216;BME280;3141;49.234;9.326;2023-08-31T01:08:40;99089.00;;;17.27;90.57
6216;BME280;3141;49.234;9.326;2023-08-31T01:09:49;99089.44;;;17.17;91.14
6216;BME280;3141;49.234;9.326;2023-08-31T01:11:33;99102.34;;;17.20;91.04
6216;BME280;3141;49.234;9.326;2023-08-31T01:12:22;99101.75;;;17.25;91.46
6216;BME280;3141;49.234;9.326;2023-08-31T01:13:14;99093.16;;;17.16;91.48
6216;BME280;3141;49.234;9.326;2023-08-31T01:14:02;99100.72;;;17.19;91.55
6216;BME280;3141;49.234;9.326;2023-08-31T01:15:02;99103.41;;;17.19;91.37
6216;BME280;3141;49.234;9.326;2023-08-31T01:15:51;99097.44;;;17.17;91.52
6216;BME280;3141;49.234;9.326;2023-08-31T01:16:39;99101.75;;;17.25;91.15
6216;BME280;3141;49.234;9.326;2023-08-31T01:17:26;99102.75;;;17.30;90.88
6216;BME280;3141;49.234;9.326;2023-08-31T01:18:13;99106.63;;;17.34;90.37
6216;BME280;3141;49.234;9.326;2023-08-31T01:19:04;99101.78;;;17.18;91.03
6216;BME280;3141;49.234;9.326;2023-08-31T01:19:50;99102.59;;;17.12;91.82
6216;BME280;3141;49.234;9.326;2023-08-31T01:20:46;99107.34;;;17.17;91.47
6216;BME280;3141;49.234;9.326;2023-08-31T01:21:37;99103.00;;;17.16;91.29
6216;BME280;3141;49.234;9.326;2023-08-31T01:23:16;99106.91;;;17.20;91.50
6216;BME280;3141;49.234;9.326;2023-08-31T01:24:01;99111.59;;;17.24;91.00
6216;BME280;3141;49.234;9.326;2023-08-31T01:24:44;99106.66;;;17.28;91.10
6216;BME280;3141;49.234;9.326;2023-08-31T01:25:27;99103.53;;;17.31;90.78
6216;BME280;3141;49.234;9.326;2023-08-31T01:26:10;99113.84;;;17.27;90.96
6216;BME280;3141;49.234;9.326;2023-08-31T01:26:53;99108.09;;;17.30;90.68
6216;BME280;3141;49.234;9.326;2023-08-31T01:27:37;99104.63;;;17.23;91.18
6216;BME280;3141;49.234;9.326;2023-08-31T01:28:20;99104.22;;;17.20;91.15
6216;BME280;3141;49.234;9.326;2023-08-31T01:29:02;99101.75;;;17.25;91.22
6216;BME280;3141;49.234;9.326;2023-08-31T01:29:45;99097.63;;;17.22;90.96
6216;BME280;3141;49.234;9.326;2023-08-31T01:30:30;99102.13;;;17.28;90.99
6216;BME280;3141;49.234;9.326;2023-08-31T01:31:15;99098.41;;;17.29;90.78
6216;BME280;3141;49.234;9.326;2023-08-31T01:31:58;99091.44;;;17.28;90.34
6216;BME280;3141;49.234;9.326;2023-08-31T01:32:44;99091.84;;;17.32;90.42
6216;BME280;3141;49.234;9.326;2023-08-31T01:33:29;99095.97;;;17.28;90.82
6216;BME280;3141;49.234;9.326;2023-08-31T01:34:11;99091.22;;;17.30;90.99
6216;BME280;3141;49.234;9.326;2023-08-31T01:34:54;99086.06;;;17.35;90.57
6216;BME280;3141;49.234;9.326;2023-08-31T01:35:43;99085.28;;;17.28;90.99
6216;BME280;3141;49.234;9.326;2023-08-31T01:36:31;99094.09;;;17.35;90.67
6216;BME280;3141;49.234;9.326;2023-08-31T01:37:22;99090.19;;;17.38;90.74
6216;BME280;3141;49.234;9.326;2023-08-31T01:38:07;99091.38;;;17.42;90.18
6216;BME280;3141;49.234;9.326;2023-08-31T01:38:58;99092.41;;;17.41;90.09
6216;BME280;3141;49.234;9.326;2023-08-31T01:39:52;99096.09;;;17.40;90.03
6216;BME280;3141;49.234;9.326;2023-08-31T01:40:40;99098.81;;;17.33;90.57
6216;BME280;3141;49.234;9.326;2023-08-31T01:41:28;99096.38;;;17.31;90.60
6216;BME280;3141;49.234;9.326;2023-08-31T01:42:12;99100.47;;;17.34;90.17
6216;BME280;3141;49.234;9.326;2023-08-31T01:42:56;99106.63;;;17.34;90.47
6216;BME280;3141;49.234;9.326;2023-08-31T01:43:40;99110.28;;;17.40;90.16
6216;BME280;3141;49.234;9.326;2023-08-31T01:44:23;99104.16;;;17.33;90.63
6216;BME280;3141;49.234;9.326;2023-08-31T01:45:07;99109.69;;;17.38;90.22
6216;BME280;3141;49.234;9.326;2023-08-31T01:45:51;99104.94;;;17.40;90.21
6216;BME280;3141;49.234;9.326;2023-08-31T01:46:35;99115.03;;;17.38;90.37
6216;BME280;3141;49.234;9.326;2023-08-31T01:47:18;99104.13;;;17.40;90.43
6216;BME280;3141;49.234;9.326;2023-08-31T01:48:01;99107.44;;;17.35;90.69
6216;BME280;3141;49.234;9.326;2023-08-31T01:48:44;99112.84;;;17.22;91.31
6216;BME280;3141;49.234;9.326;2023-08-31T01:49:27;99112.00;;;17.28;91.16
6216;BME280;3141;49.234;9.326;2023-08-31T01:50:11;99110.38;;;17.27;91.12
6216;BME280;3141;49.234;9.326;2023-08-31T01:50:53;99109.94;;;17.30;91.28
6216;BME280;3141;49.234;9.326;2023-08-31T01:51:35;99105.22;;;17.32;91.15
6216;BME280;3141;49.234;9.326;2023-08-31T01:52:18;99117.31;;;17.34;90.86
6216;BME280;3141;49.234;9.326;2023-08-31T01:53:00;99109.94;;;17.30;90.84
6216;BME280;3141;49.234;9.326;2023-08-31T01:53:42;99114.84;;;17.33;90.90
6216;BME280;3141;49.234;9.326;2023-08-31T01:54:26;99111.16;;;17.34;90.88
6216;BME280;3141;49.234;9.326;2023-08-31T01:55:09;99113.00;;;17.33;90.81
6216;BME280;3141;49.234;9.326;2023-08-31T01:55:51;99112.41;;;17.31;91.15
6216;BME280;3141;49.234;9.326;2023-08-31T01:56:33;99123.47;;;17.35;90.93
6216;BME280;3141;49.234;9.326;2023-08-31T01:57:16;99120.84;;;17.28;91.26
6216;BME280;3141;49.234;9.326;2023-08-31T01:57:58;99117.13;;;17.29;91.55
6216;BME280;3141;49.234;9.326;2023-08-31T01:58:41;99126.75;;;17.37;91.46
6216;BME280;3141;49.234;9.326;2023-08-31T01:59:23;99122.63;;;17.41;90.90
6216;BME280;3141;49.234;9.326;2023-08-31T02:00:06;99125.31;;;17.41;90.86
6216;BME280;3141;49.234;9.326;2023-08-31T02:00:49;99124.28;;;17.42;90.73
6216;BME280;3141;49.234;9.326;2023-08-31T02:01:32;99137.19;;;17.45;91.06
6216;BME280;3141;49.234;9.326;2023-08-31T02:02:16;99125.31;;;17.48;90.80
6216;BME280;3141;49.234;9.326;2023-08-31T02:02:58;99128.59;;;17.37;90.91
6216;BME280;3141;49.234;9.326;2023-08-31T02:03:40;99133.31;;;17.48;91.03
6216;BME280;3141;49.234;9.326;2023-08-31T02:04:23;99120.97;;;17.47;90.82
6216;BME280;3141;49.234;9.326;2023-08-31T02:05:06;99127.16;;;17.47;90.56
6216;BME280;3141;49.234;9.326;2023-08-31T02:05:49;99122.41;;;17.49;90.41
6216;BME280;3141;49.234;9.326;2023-08-31T02:06:32;99127.13;;;17.54;90.34
6216;BME280;3141;49.234;9.326;2023-08-31T02:07:14;99129.38;;;17.57;90.39
6216;BME280;3141;49.234;9.326;2023-08-31T02:07:56;99128.94;;;17.60;89.86
6216;BME280;3141;49.234;9.326;2023-08-31T02:08:38;99129.50;;;17.68;89.62
6216;BME280;3141;49.234;9.326;2023-08-31T02:09:21;99128.84;;;17.73;88.76
6216;BME280;3141;49.234;9.326;2023-08-31T02:10:04;99122.28;;;17.75;88.23
6216;BME280;3141;49.234;9.326;2023-08-31T02:10:48;99126.13;;;17.79;88.85
6216;BME280;3141;49.234;9.326;2023-08-31T02:11:31;99124.78;;;17.70;89.01
6216;BME280;3141;49.234;9.326;2023-08-31T02:12:19;99120.84;;;17.73;88.91
6216;BME280;3141;49.234;9.326;2023-08-31T02:13:02;99126.56;;;17.76;89.37
6216;BME280;3141;49.234;9.326;2023-08-31T02:13:44;99121.88;;;17.72;89.83
6216;BME280;3141;49.234;9.326;2023-08-31T02:14:29;99121.84;;;17.78;89.10
6216;BME280;3141;49.234;9.326;2023-08-31T02:15:12;99123.06;;;17.82;88.47
6216;BME280;3141;49.234;9.326;2023-08-31T02:15:54;99124.78;;;17.70;88.96
6216;BME280;3141;49.234;9.326;2023-08-31T02:16:36;99122.09;;;17.70;89.42
6216;BME280;3141;49.234;9.326;2023-08-31T02:17:19;99119.81;;;17.74;89.25
6216;BME280;3141;49.234;9.326;2023-08-31T02:18:01;99125.56;;;17.77;89.22
6216;BME280;3141;49.234;9.326;2023-08-31T02:18:44;99126.75;;;17.81;89.31
6216;BME280;3141;49.234;9.326;2023-08-31T02:19:26;99125.50;;;17.84;89.19
6216;BME280;3141;49.234;9.326;2023-08-31T02:20:09;99132.31;;;17.80;89.66
6216;BME280;3141;49.234;9.326;2023-08-31T02:20:52;99133.31;;;17.85;89.33
6216;BME280;3141;49.234;9.326;2023-08-31T02:21:35;99131.91;;;17.76;89.75
6216;BME280;3141;49.234;9.326;2023-08-31T02:22:17;99129.47;;;17.75;89.52
6216;BME280;3141;49.234;9.326;2023-08-31T02:23:00;99130.69;;;17.79;89.50
6216;BME280;3141;49.234;9.326;2023-08-31T02:23:42;99125.78;;;17.69;89.98
6216;BME280;3141;49.234;9.326;2023-08-31T02:24:24;99126.91;;;17.86;89.77
6216;BME280;3141;49.234;9.326;2023-08-31T02:25:07;99133.47;;;17.90;89.37
6216;BME280;3141;49.234;9.326;2023-08-31T02:25:49;99129.59;;;17.86;89.38
6216;BME280;3141;49.234;9.326;2023-08-31T02:26:35;99131.19;;;17.94;88.94
6216;BME280;3141;49.234;9.326;2023-08-31T02:27:18;99134.44;;;18.02;88.79
6216;BME280;3141;49.234;9.326;2023-08-31T02:28:00;99129.25;;;18.07;88.08
6216;BME280;3141;49.234;9.326;2023-08-31T02:28:44;99131.69;;;18.09;87.92
6216;BME280;3141;49.234;9.326;2023-08-31T02:29:27;99135.03;;;18.04;88.28
6216;BME280;3141;49.234;9.326;2023-08-31T02:30:10;99135.47;;;18.01;88.14
6216;BME280;3141;49.234;9.326;2023-08-31T02:31:00;99131.53;;;18.04;88.10
6216;BME280;3141;49.234;9.326;2023-08-31T02:31:43;99138.31;;;18.06;87.65
6216;BME280;3141;49.234;9.326;2023-08-31T02:32:25;99135.34;;;17.90;88.31
6216;BME280;3141;49.234;9.326;2023-08-31T02:33:07;99141.59;;;17.77;89.06
6216;BME280;3141;49.234;9.326;2023-08-31T02:33:50;99133.94;;;17.87;88.77
6216;BME280;3141;49.234;9.326;2023-08-31T02:34:32;99130.25;;;17.82;88.44
6216;BME280;3141;49.234;9.326;2023-08-31T02:35:15;99135.72;;;17.93;88.52
6216;BME280;3141;49.234;9.326;2023-08-31T02:35:58;99138.84;;;17.90;88.14
6216;BME280;3141;49.234;9.326;2023-08-31T02:36:40;99138.41;;;17.93;88.11
6216;BME280;3141;49.234;9.326;2023-08-31T02:37:22;99141.06;;;18.00;88.03
6216;BME280;3141;49.234;9.326;2023-08-31T02:38:04;99142.25;;;18.04;87.73
6216;BME280;3141;49.234;9.326;2023-08-31T02:38:47;99135.88;;;17.74;89.55
6216;BME280;3141;49.234;9.326;2023-08-31T02:39:32;99135.78;;;17.49;89.79
6216;BME280;3141;49.234;9.326;2023-08-31T02:40:14;99133.59;;;17.71;89.86
6216;BME280;3141;49.234;9.326;2023-08-31T02:40:57;99134.44;;;17.71;89.46
6216;BME280;3141;49.234;9.326;2023-08-31T02:41:40;99130.50;;;17.74;89.01
6216;BME280;3141;49.234;9.326;2023-08-31T02:42:22;99142.44;;;17.71;89.11
6216;BME280;3141;49.234;9.326;2023-08-31T02:43:04;99137.44;;;17.81;88.87
6216;BME280;3141;49.234;9.326;2023-08-31T02:43:50;99140.28;;;17.86;88.11
6216;BME280;3141;49.234;9.326;2023-08-31T02:44:32;99139.44;;;17.92;87.98
6216;BME280;3141;49.234;9.326;2023-08-31T02:45:15;99143.75;;;17.93;88.06
6216;BME280;3141;49.234;9.326;2023-08-31T02:46:02;99139.38;;;17.99;87.75
6216;BME280;3141;49.234;9.326;2023-08-31T02:46:44;99143.22;;;18.09;87.04
6216;BME280;3141;49.234;9.326;2023-08-31T02:47:27;99141.16;;;18.11;87.01
6216;BME280;3141;49.234;9.326;2023-08-31T02:48:09;99145.75;;;18.04;87.00
6216;BME280;3141;49.234;9.326;2023-08-31T02:48:52;99142.00;;;18.05;86.44
6216;BME280;3141;49.234;9.326;2023-08-31T02:49:34;99147.13;;;18.13;86.44
6216;BME280;3141;49.234;9.326;2023-08-31T02:50:16;99143.50;;;18.01;87.06
6216;BME280;3141;49.234;9.326;2023-08-31T02:50:59;99137.53;;;17.99;87.21
6216;BME280;3141;49.234;9.326;2023-08-31T02:51:45;99135.03;;;18.04;86.69
6216;BME280;3141;49.234;9.326;2023-08-31T02:52:27;99141.63;;;18.02;87.83
6216;BME280;3141;49.234;9.326;2023-08-31T02:53:09;99142.72;;;17.94;87.24
6216;BME280;3141;49.234;9.326;2023-08-31T02:53:52;99148.31;;;17.86;87.60
6216;BME280;3141;49.234;9.326;2023-08-31T02:54:35;99142.13;;;17.92;87.47
6216;BME280;3141;49.234;9.326;2023-08-31T02:55:17;99136.16;;;17.90;88.04
6216;BME280;3141;49.234;9.326;2023-08-31T02:56:00;99138.16;;;18.01;86.91
6216;BME280;3141;49.234;9.326;2023-08-31T02:56:42;99140.59;;;18.03;86.92
6216;BME280;3141;49.234;9.326;2023-08-31T02:57:24;99137.78;;;17.91;87.74
6216;BME280;3141;49.234;9.326;2023-08-31T02:58:07;99139.28;;;17.87;87.15
6216;BME280;3141;49.234;9.326;2023-08-31T02:58:49;99133.47;;;17.90;87.41
6216;BME280;3141;49.234;9.326;2023-08-31T02:59:31;99139.44;;;17.92;87.46
6216;BME280;3141;49.234;9.326;2023-08-31T03:00:17;99141.69;;;17.95;87.18
6216;BME280;3141;49.234;9.326;2023-08-31T03:01:08;99136.44;;;17.76;88.33
6216;BME280;3141;49.234;9.326;2023-08-31T03:01:51;99136.84;;;17.79;87.98
6216;BME280;3141;49.234;9.326;2023-08-31T03:02:35;99134.44;;;17.71;88.51
6216;BME280;3141;49.234;9.326;2023-08-31T03:03:18;99136.91;;;17.66;88.73
6216;BME280;3141;49.234;9.326;2023-08-31T03:04:01;99138.66;;;17.85;88.14
6216;BME280;3141;49.234;9.326;2023-08-31T03:04:43;99140.91;;;17.88;88.17
6216;BME280;3141;49.234;9.326;2023-08-31T03:05:26;99141.25;;;17.98;87.18
6216;BME280;3141;49.234;9.326;2023-08-31T03:06:09;99140.13;;;17.81;87.67
6216;BME280;3141;49.234;9.326;2023-08-31T03:06:51;99133.31;;;17.85;88.09
6216;BME280;3141;49.234;9.326;2023-08-31T03:07:34;99142.56;;;17.83;88.25
6216;BME280;3141;49.234;9.326;2023-08-31T03:08:16;99136.66;;;17.74;89.15
6216;BME280;3141;49.234;9.326;2023-08-31T03:08:58;99137.66;;;17.80;88.80
6216;BME280;3141;49.234;9.326;2023-08-31T03:09:41;99138.66;;;17.85;88.23
6216;BME280;3141;49.234;9.326;2023-08-31T03:10:23;99137.63;;;17.86;88.57
6216;BME280;3141;49.234;9.326;2023-08-31T03:11:06;99146.16;;;17.70;89.27
6216;BME280;3141;49.234;9.326;2023-08-31T03:11:48;99147.28;;;17.87;87.79
6216;BME280;3141;49.234;9.326;2023-08-31T03:12:31;99142.13;;;17.92;87.47
6216;BME280;3141;49.234;9.326;2023-08-31T03:13:13;99137.63;;;17.86;88.15
6216;BME280;3141;49.234;9.326;2023-08-31T03:13:55;99134.56;;;17.83;87.96
6216;BME280;3141;49.234;9.326;2023-08-31T03:14:37;99135.56;;;17.88;87.67
6216;BME280;3141;49.234;9.326;2023-08-31T03:15:20;99135.56;;;17.88;87.42
6216;BME280;3141;49.234;9.326;2023-08-31T03:16:02;99141.34;;;17.85;88.07
6216;BME280;3141;49.234;9.326;2023-08-31T03:16:45;99148.41;;;17.73;87.99
6216;BME280;3141;49.234;9.326;2023-08-31T03:17:27;99149.00;;;17.75;88.24
6216;BME280;3141;49.234;9.326;2023-08-31T03:18:10;99147.41;;;17.68;88.63
6216;BME280;3141;49.234;9.326;2023-08-31T03:18:52;99142.34;;;17.53;89.59
6216;BME280;3141;49.234;9.326;2023-08-31T03:19:35;99147.09;;;17.51;89.83
6216;BME280;3141;49.234;9.326;2023-08-31T03:20:17;99137.06;;;17.33;90.44
6216;BME280;3141;49.234;9.326;2023-08-31T03:21:00;99132.50;;;17.47;89.88
6216;BME280;3141;49.234;9.326;2023-08-31T03:21:42;99135.34;;;17.52;89.77
6216;BME280;3141;49.234;9.326;2023-08-31T03:22:24;99140.25;;;17.55;89.57
6216;BME280;3141;49.234;9.326;2023-08-31T03:23:08;99142.09;;;17.61;89.03
6216;BME280;3141;49.234;9.326;2023-08-31T03:23:51;99148.44;;;17.60;88.86
6216;BME280;3141;49.234;9.326;2023-08-31T03:24:33;99135.31;;;17.59;88.91
6216;BME280;3141;49.234;9.326;2023-08-31T03:25:16;99141.91;;;17.56;88.78
6216;BME280;3141;49.234;9.326;2023-08-31T03:25:58;99146.22;;;17.57;88.63
6216;BME280;3141;49.234;9.326;2023-08-31T03:26:41;99143.53;;;17.57;88.68
6216;BME280;3141;49.234;9.326;2023-08-31T03:27:25;99142.75;;;17.44;89.32
6216;BME280;3141;49.234;9.326;2023-08-31T03:28:07;99146.91;;;17.33;89.84
6216;BME280;3141;49.234;9.326;2023-08-31T03:28:50;99150.16;;;17.42;89.79
6216;BME280;3141;49.234;9.326;2023-08-31T03:29:32;99148.34;;;17.36;89.68
6216;BME280;3141;49.234;9.326;2023-08-31T03:30:16;99145.69;;;17.36;89.92
6216;BME280;3141;49.234;9.326;2023-08-31T03:30:58;99144.00;;;17.48;89.35
6216;BME280;3141;49.234;9.326;2023-08-31T03:31:41;99148.53;;;17.47;88.99
6216;BME280;3141;49.234;9.326;2023-08-31T03:32:23;99154.28;;;17.44;89.27
6216;BME280;3141;49.234;9.326;2023-08-31T03:33:05;99149.97;;;17.37;89.64
6216;BME280;3141;49.234;9.326;2023-08-31T03:33:50;99147.31;;;17.37;89.37
6216;BME280;3141;49.234;9.326;2023-08-31T03:34:32;99147.09;;;17.38;89.63
6216;BME280;3141;49.234;9.326;2023-08-31T03:35:15;99155.72;;;17.47;88.96
6216;BME280;3141;49.234;9.326;2023-08-31T03:36:03;99156.94;;;17.44;89.23
6216;BME280;3141;49.234;9.326;2023-08-31T03:36:46;99162.94;;;17.46;89.46
6216;BME280;3141;49.234;9.326;2023-08-31T03:37:28;99160.06;;;17.48;88.93
6216;BME280;3141;49.234;9.326;2023-08-31T03:38:11;99156.72;;;17.52;88.41
6216;BME280;3141;49.234;9.326;2023-08-31T03:38:53;99162.50;;;17.49;88.67
6216;BME280;3141;49.234;9.326;2023-08-31T03:39:35;99155.91;;;17.45;88.79
6216;BME280;3141;49.234;9.326;2023-08-31T03:40:19;99155.09;;;17.38;89.29
6216;BME280;3141;49.234;9.326;2023-08-31T03:41:01;99158.78;;;17.44;89.27
6216;BME280;3141;49.234;9.326;2023-08-31T03:41:44;99152.06;;;17.28;89.84
6216;BME280;3141;49.234;9.326;2023-08-31T03:42:26;99155.59;;;17.22;90.52
6216;BME280;3141;49.234;9.326;2023-08-31T03:43:09;99155.16;;;17.25;90.38
6216;BME280;3141;49.234;9.326;2023-08-31T03:43:51;99153.69;;;17.36;89.85
6216;BME280;3141;49.234;9.326;2023-08-31T03:44:34;99157.38;;;17.34;89.62
6216;BME280;3141;49.234;9.326;2023-08-31T03:45:17;99162.09;;;17.39;89.09
6216;BME280;3141;49.234;9.326;2023-08-31T03:46:00;99154.31;;;17.31;89.79
6216;BME280;3141;49.234;9.326;2023-08-31T03:46:43;99159.22;;;17.41;89.30
6216;BME280;3141;49.234;9.326;2023-08-31T03:47:25;99156.38;;;17.36;89.37
6216;BME280;3141;49.234;9.326;2023-08-31T03:48:07;99159.06;;;17.29;90.00
6216;BME280;3141;49.234;9.326;2023-08-31T03:48:50;99157.59;;;17.33;89.79
6216;BME280;3141;49.234;9.326;2023-08-31T03:49:33;99162.50;;;17.36;89.28
6216;BME280;3141;49.234;9.326;2023-08-31T03:50:17;99165.44;;;17.28;89.81
6216;BME280;3141;49.234;9.326;2023-08-31T03:50:59;99159.44;;;17.32;89.62
6216;BME280;3141;49.234;9.326;2023-08-31T03:51:42;99169.72;;;17.36;89.96
6216;BME280;3141;49.234;9.326;2023-08-31T03:52:25;99171.13;;;17.38;89.39
6216;BME280;3141;49.234;9.326;2023-08-31T03:53:07;99162.09;;;17.32;89.33
6216;BME280;3141;49.234;9.326;2023-08-31T03:53:49;99171.16;;;17.31;89.70
6216;BME280;3141;49.234;9.326;2023-08-31T03:54:32;99171.16;;;17.31;89.48
6216;BME280;3141;49.234;9.326;2023-08-31T03:55:14;99169.06;;;17.40;89.13
6216;BME280;3141;49.234;9.326;2023-08-31T03:55:56;99165.00;;;17.31;89.37
6216;BME280;3141;49.234;9.326;2023-08-31T03:56:39;99159.66;;;17.31;89.50
6216;BME280;3141;49.234;9.326;2023-08-31T03:57:21;99168.69;;;17.37;89.28
6216;BME280;3141;49.234;9.326;2023-08-31T03:58:04;99163.97;;;17.32;89.25
6216;BME280;3141;49.234;9.326;2023-08-31T03:58:46;99162.09;;;17.39;88.87
6216;BME280;3141;49.234;9.326;2023-08-31T03:59:28;99159.28;;;17.21;89.49
6216;BME280;3141;49.234;9.326;2023-08-31T04:00:11;99163.81;;;17.14;90.02
6216;BME280;3141;49.234;9.326;2023-08-31T04:00:54;99168.78;;;17.17;90.25
6216;BME280;3141;49.234;9.326;2023-08-31T04:01:37;99163.44;;;17.04;90.86
6216;BME280;3141;49.234;9.326;2023-08-31T04:02:19;99169.78;;;17.16;90.38
6216;BME280;3141;49.234;9.326;2023-08-31T04:03:01;99167.53;;;17.13;90.47
6216;BME280;3141;49.234;9.326;2023-08-31T04:03:45;99176.16;;;17.08;90.65